sensor_id;sensor_type;location;lat;lon;timestamp;pressure;altitude;pressure_sealevel;temperature;humidity
11499;BME280;5806;48.748;9.278;2023-06-26T00:01:46;100719.09;;;21.19;64.91
11499;BME280;5806;48.748;9.278;2023-06-26T00:04:13;100720.91;;;21.12;65.84
11499;BME280;5806;48.748;9.278;2023-06-26T00:06:41;100719.05;;;21.08;65.62
11499;BME280;5806;48.748;9.278;2023-06-26T00:09:08;100724.13;;;21.06;65.36
11499;BME280;5806;48.748;9.278;2023-06-26T00:11:36;100722.61;;;21.11;65.06
11499;BME280;5806;48.748;9.278;2023-06-26T00:14:04;100720.68;;;20.98;65.75
11499;BME280;5806;48.748;9.278;2023-06-26T00:16:32;100716.62;;;20.90;65.43
11499;BME280;5806;48.748;9.278;2023-06-26T00:19:00;100720.31;;;21.02;65.81
11499;BME280;5806;48.748;9.278;2023-06-26T00:21:27;100716.62;;;20.93;65.92
11499;BME280;5806;48.748;9.278;2023-06-26T00:23:55;100721.86;;;20.81;66.05
11499;BME280;5806;48.748;9.278;2023-06-26T00:26:22;100712.64;;;20.96;65.88
11499;BME280;5806;48.748;9.278;2023-06-26T00:28:50;100714.09;;;20.94;64.99
11499;BME280;5806;48.748;9.278;2023-06-26T00:31:18;100709.39;;;20.92;65.21
11499;BME280;5806;48.748;9.278;2023-06-26T00:33:45;100711.78;;;20.82;65.81
11499;BME280;5806;48.748;9.278;2023-06-26T00:36:13;100706.70;;;20.73;65.60
11499;BME280;5806;48.748;9.278;2023-06-26T00:38:40;100713.57;;;20.65;65.70
11499;BME280;5806;48.748;9.278;2023-06-26T00:41:08;100708.56;;;20.78;65.71
11499;BME280;5806;48.748;9.278;2023-06-26T00:43:37;100709.38;;;20.78;65.22
11499;BME280;5806;48.748;9.278;2023-06-26T00:46:13;100709.95;;;20.64;65.58
11499;BME280;5806;48.748;9.278;2023-06-26T00:48:37;100709.59;;;20.68;65.74
11499;BME280;5806;48.748;9.278;2023-06-26T00:51:06;100710.68;;;20.70;65.13
11499;BME280;5806;48.748;9.278;2023-06-26T00:53:34;100707.13;;;20.67;65.91
11499;BME280;5806;48.748;9.278;2023-06-26T00:56:02;100702.84;;;20.58;65.43
11499;BME280;5806;48.748;9.278;2023-06-26T00:58:30;100704.23;;;20.58;66.22
11499;BME280;5806;48.748;9.278;2023-06-26T01:00:57;100698.53;;;20.52;66.34
11499;BME280;5806;48.748;9.278;2023-06-26T01:03:26;100702.28;;;20.59;65.50
11499;BME280;5806;48.748;9.278;2023-06-26T01:05:56;100696.16;;;20.46;67.23
11499;BME280;5806;48.748;9.278;2023-06-26T01:08:25;100692.72;;;20.51;66.68
11499;BME280;5806;48.748;9.278;2023-06-26T01:10:55;100695.13;;;20.42;65.97
11499;BME280;5806;48.748;9.278;2023-06-26T01:13:23;100692.05;;;20.57;65.00
11499;BME280;5806;48.748;9.278;2023-06-26T01:15:52;100693.11;;;20.58;65.52
11499;BME280;5806;48.748;9.278;2023-06-26T01:18:20;100691.08;;;20.50;65.27
11499;BME280;5806;48.748;9.278;2023-06-26T01:20:48;100680.98;;;20.41;65.30
11499;BME280;5806;48.748;9.278;2023-06-26T01:23:38;100687.66;;;20.40;65.26
11499;BME280;5806;48.748;9.278;2023-06-26T01:26:21;100687.94;;;20.41;65.91
11499;BME280;5806;48.748;9.278;2023-06-26T01:28:51;100686.80;;;20.42;66.43
11499;BME280;5806;48.748;9.278;2023-06-26T01:31:20;100676.14;;;20.33;66.44
11499;BME280;5806;48.748;9.278;2023-06-26T01:33:47;100645.33;;;20.18;67.17
11499;BME280;5806;48.748;9.278;2023-06-26T01:36:16;100669.93;;;20.38;66.78
11499;BME280;5806;48.748;9.278;2023-06-26T01:38:44;100670.54;;;20.35;66.48
11499;BME280;5806;48.748;9.278;2023-06-26T01:41:12;100667.75;;;20.22;67.52
11499;BME280;5806;48.748;9.278;2023-06-26T01:46:44;100670.33;;;20.18;66.28
11499;BME280;5806;48.748;9.278;2023-06-26T01:52:20;100668.34;;;20.19;66.15
11499;BME280;5806;48.748;9.278;2023-06-26T01:54:21;100671.43;;;20.17;65.41
11499;BME280;5806;48.748;9.278;2023-06-26T01:56:51;100668.51;;;20.11;65.96
11499;BME280;5806;48.748;9.278;2023-06-26T01:59:20;100671.07;;;20.05;66.36
11499;BME280;5806;48.748;9.278;2023-06-26T02:01:49;100672.67;;;20.11;66.20
11499;BME280;5806;48.748;9.278;2023-06-26T02:04:17;100670.75;;;20.09;66.61
11499;BME280;5806;48.748;9.278;2023-06-26T02:06:44;100671.18;;;20.16;66.33
11499;BME280;5806;48.748;9.278;2023-06-26T02:09:11;100667.21;;;20.20;65.31
11499;BME280;5806;48.748;9.278;2023-06-26T02:11:39;100665.75;;;20.09;66.06
11499;BME280;5806;48.748;9.278;2023-06-26T02:14:06;100668.30;;;20.05;66.06
11499;BME280;5806;48.748;9.278;2023-06-26T02:16:35;100668.93;;;20.02;66.27
11499;BME280;5806;48.748;9.278;2023-06-26T02:19:02;100671.13;;;20.03;66.49
11499;BME280;5806;48.748;9.278;2023-06-26T02:21:30;100674.40;;;19.91;66.60
11499;BME280;5806;48.748;9.278;2023-06-26T02:23:57;100677.61;;;19.98;65.64
11499;BME280;5806;48.748;9.278;2023-06-26T02:26:25;100690.31;;;19.86;66.58
11499;BME280;5806;48.748;9.278;2023-06-26T02:28:52;100691.05;;;19.91;66.02
11499;BME280;5806;48.748;9.278;2023-06-26T02:31:20;100686.45;;;19.84;66.83
11499;BME280;5806;48.748;9.278;2023-06-26T02:33:47;100689.92;;;19.76;67.16
11499;BME280;5806;48.748;9.278;2023-06-26T02:36:16;100692.05;;;19.82;67.16
11499;BME280;5806;48.748;9.278;2023-06-26T02:38:43;100684.37;;;19.76;68.16
11499;BME280;5806;48.748;9.278;2023-06-26T02:41:11;100691.55;;;19.80;68.01
11499;BME280;5806;48.748;9.278;2023-06-26T02:43:38;100693.64;;;19.69;67.98
11499;BME280;5806;48.748;9.278;2023-06-26T02:46:05;100701.42;;;19.86;67.65
11499;BME280;5806;48.748;9.278;2023-06-26T02:48:33;100698.25;;;19.76;66.32
11499;BME280;5806;48.748;9.278;2023-06-26T02:51:00;100706.48;;;19.81;66.98
11499;BME280;5806;48.748;9.278;2023-06-26T02:53:28;100705.08;;;19.84;67.25
11499;BME280;5806;48.748;9.278;2023-06-26T02:55:55;100703.41;;;19.83;67.27
11499;BME280;5806;48.748;9.278;2023-06-26T02:58:23;100702.65;;;19.80;66.86
11499;BME280;5806;48.748;9.278;2023-06-26T03:00:50;100715.83;;;19.53;68.47
11499;BME280;5806;48.748;9.278;2023-06-26T03:03:19;100711.32;;;19.57;68.18
11499;BME280;5806;48.748;9.278;2023-06-26T03:05:47;100718.09;;;19.51;67.48
11499;BME280;5806;48.748;9.278;2023-06-26T03:08:15;100721.95;;;19.53;68.80
11499;BME280;5806;48.748;9.278;2023-06-26T03:10:42;100733.17;;;19.61;67.67
11499;BME280;5806;48.748;9.278;2023-06-26T03:13:10;100728.64;;;19.52;67.67
11499;BME280;5806;48.748;9.278;2023-06-26T03:15:37;100733.27;;;19.56;67.30
11499;BME280;5806;48.748;9.278;2023-06-26T03:18:05;100739.78;;;19.47;68.54
11499;BME280;5806;48.748;9.278;2023-06-26T03:20:32;100736.17;;;19.49;68.18
11499;BME280;5806;48.748;9.278;2023-06-26T03:23:00;100734.63;;;19.19;69.83
11499;BME280;5806;48.748;9.278;2023-06-26T03:25:27;100746.47;;;19.27;68.85
11499;BME280;5806;48.748;9.278;2023-06-26T03:27:55;100746.17;;;19.47;68.19
11499;BME280;5806;48.748;9.278;2023-06-26T03:30:22;100751.09;;;19.53;68.54
11499;BME280;5806;48.748;9.278;2023-06-26T03:32:50;100753.03;;;19.52;69.14
11499;BME280;5806;48.748;9.278;2023-06-26T03:35:17;100753.28;;;19.35;68.98
11499;BME280;5806;48.748;9.278;2023-06-26T03:37:45;100758.20;;;19.40;68.40
11499;BME280;5806;48.748;9.278;2023-06-26T03:40:12;100756.69;;;19.29;69.19
11499;BME280;5806;48.748;9.278;2023-06-26T03:42:40;100760.08;;;19.26;69.67
11499;BME280;5806;48.748;9.278;2023-06-26T03:45:07;100762.91;;;19.18;69.64
11499;BME280;5806;48.748;9.278;2023-06-26T03:47:35;100762.23;;;19.29;69.57
11499;BME280;5806;48.748;9.278;2023-06-26T03:50:03;100761.98;;;19.28;69.96
11499;BME280;5806;48.748;9.278;2023-06-26T03:52:30;100754.95;;;19.36;69.49
11499;BME280;5806;48.748;9.278;2023-06-26T03:54:58;100762.98;;;19.13;69.80
11499;BME280;5806;48.748;9.278;2023-06-26T03:57:26;100760.84;;;19.29;69.70
11499;BME280;5806;48.748;9.278;2023-06-26T03:59:53;100767.77;;;19.32;70.33
11499;BME280;5806;48.748;9.278;2023-06-26T04:02:21;100775.17;;;19.36;69.98
11499;BME280;5806;48.748;9.278;2023-06-26T04:04:49;100775.38;;;19.21;70.70
11499;BME280;5806;48.748;9.278;2023-06-26T04:07:16;100778.32;;;19.30;70.40
11499;BME280;5806;48.748;9.278;2023-06-26T04:09:44;100764.41;;;19.11;70.29
11499;BME280;5806;48.748;9.278;2023-06-26T04:12:11;100778.99;;;19.19;69.86
11499;BME280;5806;48.748;9.278;2023-06-26T04:14:39;100778.25;;;19.53;68.68
11499;BME280;5806;48.748;9.278;2023-06-26T04:17:06;100792.36;;;19.38;69.82
11499;BME280;5806;48.748;9.278;2023-06-26T04:19:34;100789.59;;;19.57;69.65
11499;BME280;5806;48.748;9.278;2023-06-26T04:22:02;100789.59;;;19.57;69.65
11499;BME280;5806;48.748;9.278;2023-06-26T04:24:30;100792.70;;;19.53;70.02
11499;BME280;5806;48.748;9.278;2023-06-26T04:26:57;100800.56;;;19.46;70.21
11499;BME280;5806;48.748;9.278;2023-06-26T04:29:26;100796.91;;;19.50;70.07
11499;BME280;5806;48.748;9.278;2023-06-26T04:31:54;100801.91;;;19.48;71.19
11499;BME280;5806;48.748;9.278;2023-06-26T04:34:25;100799.73;;;19.45;71.25
11499;BME280;5806;48.748;9.278;2023-06-26T04:36:54;100806.33;;;19.49;71.45
11499;BME280;5806;48.748;9.278;2023-06-26T04:39:22;100809.86;;;19.55;72.11
11499;BME280;5806;48.748;9.278;2023-06-26T04:41:49;100810.41;;;19.57;71.82
11499;BME280;5806;48.748;9.278;2023-06-26T04:44:17;100804.48;;;19.63;71.49
11499;BME280;5806;48.748;9.278;2023-06-26T04:46:44;100812.68;;;19.71;71.30
11499;BME280;5806;48.748;9.278;2023-06-26T04:49:12;100809.42;;;19.85;71.17
11499;BME280;5806;48.748;9.278;2023-06-26T04:51:39;100810.78;;;20.38;68.70
11499;BME280;5806;48.748;9.278;2023-06-26T04:54:07;100807.39;;;20.57;67.35
11499;BME280;5806;48.748;9.278;2023-06-26T04:56:35;100810.16;;;20.70;66.81
11499;BME280;5806;48.748;9.278;2023-06-26T04:59:03;100803.88;;;20.94;65.51
11499;BME280;5806;48.748;9.278;2023-06-26T05:01:30;100810.47;;;20.98;66.15
11499;BME280;5806;48.748;9.278;2023-06-26T05:04:00;100808.89;;;21.08;65.04
11499;BME280;5806;48.748;9.278;2023-06-26T05:06:27;100807.75;;;21.23;64.82
11499;BME280;5806;48.748;9.278;2023-06-26T05:08:55;100812.11;;;21.26;64.49
11499;BME280;5806;48.748;9.278;2023-06-26T05:11:22;100811.80;;;21.41;62.60
11499;BME280;5806;48.748;9.278;2023-06-26T05:13:50;100809.05;;;21.52;62.44
11499;BME280;5806;48.748;9.278;2023-06-26T05:16:17;100804.28;;;21.53;62.23
11499;BME280;5806;48.748;9.278;2023-06-26T05:18:45;100812.33;;;21.54;62.17
11499;BME280;5806;48.748;9.278;2023-06-26T05:21:13;100811.41;;;21.59;61.59
11499;BME280;5806;48.748;9.278;2023-06-26T05:23:41;100810.97;;;21.65;61.20
11499;BME280;5806;48.748;9.278;2023-06-26T05:26:10;100822.23;;;21.74;61.42
11499;BME280;5806;48.748;9.278;2023-06-26T05:28:39;100821.45;;;21.71;61.07
11499;BME280;5806;48.748;9.278;2023-06-26T05:31:07;100820.00;;;21.73;60.75
11499;BME280;5806;48.748;9.278;2023-06-26T05:33:35;100817.53;;;21.72;60.38
11499;BME280;5806;48.748;9.278;2023-06-26T05:36:04;100833.43;;;21.71;60.36
11499;BME280;5806;48.748;9.278;2023-06-26T05:38:33;100830.64;;;21.82;60.20
11499;BME280;5806;48.748;9.278;2023-06-26T05:41:01;100830.27;;;21.75;60.57
11499;BME280;5806;48.748;9.278;2023-06-26T05:43:30;100834.75;;;21.60;60.43
11499;BME280;5806;48.748;9.278;2023-06-26T05:45:58;100837.73;;;21.64;60.35
11499;BME280;5806;48.748;9.278;2023-06-26T05:48:25;100829.96;;;21.63;59.66
11499;BME280;5806;48.748;9.278;2023-06-26T05:50:53;100829.55;;;21.56;60.14
11499;BME280;5806;48.748;9.278;2023-06-26T05:53:21;100837.07;;;21.56;59.62
11499;BME280;5806;48.748;9.278;2023-06-26T05:55:49;100847.22;;;21.63;59.90
11499;BME280;5806;48.748;9.278;2023-06-26T05:58:17;100840.39;;;21.69;59.78
11499;BME280;5806;48.748;9.278;2023-06-26T06:00:45;100850.78;;;21.66;59.62
11499;BME280;5806;48.748;9.278;2023-06-26T06:03:12;100851.16;;;21.75;59.67
11499;BME280;5806;48.748;9.278;2023-06-26T06:05:40;100852.14;;;21.79;59.48
11499;BME280;5806;48.748;9.278;2023-06-26T06:08:09;100856.59;;;21.67;59.65
11499;BME280;5806;48.748;9.278;2023-06-26T06:10:37;100871.97;;;21.64;60.31
11499;BME280;5806;48.748;9.278;2023-06-26T06:13:04;100862.12;;;21.56;60.89
11499;BME280;5806;48.748;9.278;2023-06-26T06:15:32;100872.70;;;21.56;60.62
11499;BME280;5806;48.748;9.278;2023-06-26T06:18:00;100870.47;;;21.56;60.62
11499;BME280;5806;48.748;9.278;2023-06-26T06:20:27;100878.46;;;21.60;61.02
11499;BME280;5806;48.748;9.278;2023-06-26T06:22:54;100873.80;;;21.69;60.49
11499;BME280;5806;48.748;9.278;2023-06-26T06:25:22;100874.08;;;21.70;60.24
11499;BME280;5806;48.748;9.278;2023-06-26T06:27:49;100875.78;;;21.68;60.90
11499;BME280;5806;48.748;9.278;2023-06-26T06:30:17;100872.83;;;21.62;60.65
11499;BME280;5806;48.748;9.278;2023-06-26T06:32:44;100875.94;;;21.74;60.83
11499;BME280;5806;48.748;9.278;2023-06-26T06:35:13;100891.34;;;21.69;60.80
11499;BME280;5806;48.748;9.278;2023-06-26T06:37:41;100895.89;;;21.79;60.60
11499;BME280;5806;48.748;9.278;2023-06-26T06:40:10;100899.36;;;21.73;60.46
11499;BME280;5806;48.748;9.278;2023-06-26T06:42:37;100900.69;;;21.76;61.09
11499;BME280;5806;48.748;9.278;2023-06-26T06:45:05;100894.34;;;21.73;61.30
11499;BME280;5806;48.748;9.278;2023-06-26T06:47:33;100885.05;;;21.64;61.71
11499;BME280;5806;48.748;9.278;2023-06-26T06:50:01;100897.39;;;21.60;62.14
11499;BME280;5806;48.748;9.278;2023-06-26T06:52:30;100889.91;;;21.58;61.64
11499;BME280;5806;48.748;9.278;2023-06-26T06:54:58;100900.79;;;21.84;61.32
11499;BME280;5806;48.748;9.278;2023-06-26T06:57:25;100902.43;;;21.85;61.03
11499;BME280;5806;48.748;9.278;2023-06-26T06:59:53;100903.92;;;21.94;61.42
11499;BME280;5806;48.748;9.278;2023-06-26T07:02:21;100899.09;;;21.86;61.50
11499;BME280;5806;48.748;9.278;2023-06-26T07:04:48;100912.89;;;21.64;61.41
11499;BME280;5806;48.748;9.278;2023-06-26T07:07:18;100918.94;;;21.41;61.92
11499;BME280;5806;48.748;9.278;2023-06-26T07:09:46;100904.67;;;21.72;61.72
11499;BME280;5806;48.748;9.278;2023-06-26T07:12:13;100912.12;;;21.88;61.29
11499;BME280;5806;48.748;9.278;2023-06-26T07:14:40;100921.27;;;21.77;61.20
11499;BME280;5806;48.748;9.278;2023-06-26T07:17:08;100930.82;;;21.74;61.35
11499;BME280;5806;48.748;9.278;2023-06-26T07:19:35;100944.09;;;21.90;61.11
11499;BME280;5806;48.748;9.278;2023-06-26T07:22:03;100944.46;;;21.73;61.20
11499;BME280;5806;48.748;9.278;2023-06-26T07:24:30;100949.56;;;21.68;61.92
11499;BME280;5806;48.748;9.278;2023-06-26T07:26:59;100955.17;;;21.79;61.18
11499;BME280;5806;48.748;9.278;2023-06-26T07:29:27;100949.31;;;21.67;61.57
11499;BME280;5806;48.748;9.278;2023-06-26T07:31:54;100948.77;;;21.65;61.78
11499;BME280;5806;48.748;9.278;2023-06-26T07:34:22;100951.48;;;21.70;62.28
11499;BME280;5806;48.748;9.278;2023-06-26T07:36:49;100957.58;;;21.72;62.12
11499;BME280;5806;48.748;9.278;2023-06-26T07:39:16;100961.76;;;21.72;61.96
11499;BME280;5806;48.748;9.278;2023-06-26T07:41:44;100956.13;;;21.75;61.94
11499;BME280;5806;48.748;9.278;2023-06-26T07:44:11;100952.39;;;21.79;61.83
11499;BME280;5806;48.748;9.278;2023-06-26T07:46:39;100947.70;;;21.91;62.02
11499;BME280;5806;48.748;9.278;2023-06-26T07:49:06;100956.19;;;21.97;62.11
11499;BME280;5806;48.748;9.278;2023-06-26T07:51:33;100959.03;;;21.94;61.72
11499;BME280;5806;48.748;9.278;2023-06-26T07:54:01;100944.56;;;21.81;62.36
11499;BME280;5806;48.748;9.278;2023-06-26T07:56:28;100934.30;;;21.79;62.75
11499;BME280;5806;48.748;9.278;2023-06-26T07:58:56;100933.62;;;21.85;62.33
11499;BME280;5806;48.748;9.278;2023-06-26T08:01:27;100945.36;;;21.95;62.39
11499;BME280;5806;48.748;9.278;2023-06-26T08:03:55;100943.84;;;21.89;61.44
11499;BME280;5806;48.748;9.278;2023-06-26T08:06:22;100946.44;;;21.97;61.60
11499;BME280;5806;48.748;9.278;2023-06-26T08:08:50;100954.53;;;22.09;61.76
11499;BME280;5806;48.748;9.278;2023-06-26T08:11:17;100961.09;;;22.02;61.16
11499;BME280;5806;48.748;9.278;2023-06-26T08:13:44;100963.31;;;22.03;61.24
11499;BME280;5806;48.748;9.278;2023-06-26T08:16:12;100968.13;;;21.86;61.39
11499;BME280;5806;48.748;9.278;2023-06-26T08:18:39;100966.12;;;21.89;61.98
11499;BME280;5806;48.748;9.278;2023-06-26T08:21:07;100960.06;;;21.98;62.27
11499;BME280;5806;48.748;9.278;2023-06-26T08:23:35;100966.05;;;22.05;60.97
11499;BME280;5806;48.748;9.278;2023-06-26T08:26:03;100967.98;;;21.94;61.65
11499;BME280;5806;48.748;9.278;2023-06-26T08:28:30;100959.14;;;22.03;61.47
11499;BME280;5806;48.748;9.278;2023-06-26T08:30:58;100982.86;;;22.25;60.90
11499;BME280;5806;48.748;9.278;2023-06-26T08:33:26;100972.92;;;22.21;60.56
11499;BME280;5806;48.748;9.278;2023-06-26T08:35:53;100970.81;;;22.16;61.16
11499;BME280;5806;48.748;9.278;2023-06-26T08:38:21;100978.03;;;22.17;60.73
11499;BME280;5806;48.748;9.278;2023-06-26T08:40:48;100984.66;;;22.32;61.21
11499;BME280;5806;48.748;9.278;2023-06-26T08:43:15;100989.52;;;22.26;60.74
11499;BME280;5806;48.748;9.278;2023-06-26T08:45:43;100991.56;;;22.34;60.63
11499;BME280;5806;48.748;9.278;2023-06-26T08:48:12;100994.60;;;22.49;60.67
11499;BME280;5806;48.748;9.278;2023-06-26T08:50:40;100986.95;;;22.54;60.72
11499;BME280;5806;48.748;9.278;2023-06-26T08:55:50;101000.39;;;22.52;60.32
11499;BME280;5806;48.748;9.278;2023-06-26T08:58:19;101000.17;;;22.49;60.07
11499;BME280;5806;48.748;9.278;2023-06-26T09:00:47;100994.49;;;22.65;59.70
11499;BME280;5806;48.748;9.278;2023-06-26T09:03:16;101000.64;;;22.53;60.56
11499;BME280;5806;48.748;9.278;2023-06-26T09:05:44;101008.08;;;22.44;60.54
11499;BME280;5806;48.748;9.278;2023-06-26T09:08:11;101011.08;;;22.34;60.50
11499;BME280;5806;48.748;9.278;2023-06-26T09:10:40;101009.13;;;22.48;59.75
11499;BME280;5806;48.748;9.278;2023-06-26T09:13:07;101011.58;;;22.50;60.21
11499;BME280;5806;48.748;9.278;2023-06-26T09:15:44;101017.05;;;22.41;59.73
11499;BME280;5806;48.748;9.278;2023-06-26T09:18:13;101012.10;;;22.52;59.47
11499;BME280;5806;48.748;9.278;2023-06-26T09:20:42;101015.91;;;22.42;59.52
11499;BME280;5806;48.748;9.278;2023-06-26T09:23:10;101001.09;;;22.69;59.68
11499;BME280;5806;48.748;9.278;2023-06-26T09:25:39;101013.41;;;22.79;59.01
11499;BME280;5806;48.748;9.278;2023-06-26T09:28:08;101008.58;;;22.93;59.13
11499;BME280;5806;48.748;9.278;2023-06-26T09:30:36;101009.84;;;22.98;59.12
11499;BME280;5806;48.748;9.278;2023-06-26T09:33:15;101009.39;;;22.71;58.71
11499;BME280;5806;48.748;9.278;2023-06-26T09:35:44;101012.28;;;22.55;58.86
11499;BME280;5806;48.748;9.278;2023-06-26T09:38:13;101007.73;;;22.59;58.44
11499;BME280;5806;48.748;9.278;2023-06-26T09:40:41;101005.91;;;22.77;58.60
11499;BME280;5806;48.748;9.278;2023-06-26T09:43:12;101013.59;;;22.93;56.72
11499;BME280;5806;48.748;9.278;2023-06-26T09:45:40;101008.33;;;22.92;56.76
11499;BME280;5806;48.748;9.278;2023-06-26T09:48:08;101014.22;;;22.79;58.06
11499;BME280;5806;48.748;9.278;2023-06-26T09:50:35;101005.52;;;22.70;56.69
11499;BME280;5806;48.748;9.278;2023-06-26T09:53:11;101015.87;;;22.91;56.55
11499;BME280;5806;48.748;9.278;2023-06-26T09:55:41;101019.22;;;23.13;56.72
11499;BME280;5806;48.748;9.278;2023-06-26T09:58:13;101016.75;;;23.11;56.43
11499;BME280;5806;48.748;9.278;2023-06-26T10:00:44;101023.69;;;23.25;56.17
11499;BME280;5806;48.748;9.278;2023-06-26T10:03:12;101024.61;;;23.43;56.34
11499;BME280;5806;48.748;9.278;2023-06-26T10:05:40;101030.66;;;23.25;54.66
11499;BME280;5806;48.748;9.278;2023-06-26T10:08:08;101020.37;;;23.12;53.79
11499;BME280;5806;48.748;9.278;2023-06-26T10:10:37;101033.87;;;23.07;55.98
11499;BME280;5806;48.748;9.278;2023-06-26T10:13:15;101035.41;;;23.02;55.28
11499;BME280;5806;48.748;9.278;2023-06-26T10:15:44;101034.02;;;22.80;55.38
11499;BME280;5806;48.748;9.278;2023-06-26T10:18:13;101042.94;;;23.02;56.17
11499;BME280;5806;48.748;9.278;2023-06-26T10:20:43;101036.77;;;23.27;55.06
11499;BME280;5806;48.748;9.278;2023-06-26T10:23:12;101032.20;;;23.31;54.65
11499;BME280;5806;48.748;9.278;2023-06-26T10:25:42;101037.51;;;23.61;53.37
11499;BME280;5806;48.748;9.278;2023-06-26T10:28:11;101051.45;;;23.72;52.11
11499;BME280;5806;48.748;9.278;2023-06-26T10:30:40;101047.95;;;23.77;51.78
11499;BME280;5806;48.748;9.278;2023-06-26T10:33:08;101049.42;;;23.75;53.32
11499;BME280;5806;48.748;9.278;2023-06-26T10:35:42;101044.31;;;23.57;52.75
11499;BME280;5806;48.748;9.278;2023-06-26T10:38:10;101058.56;;;23.78;53.34
11499;BME280;5806;48.748;9.278;2023-06-26T10:40:47;101054.73;;;23.54;52.70
11499;BME280;5806;48.748;9.278;2023-06-26T10:43:18;101047.20;;;23.10;51.92
11499;BME280;5806;48.748;9.278;2023-06-26T10:45:46;101052.05;;;23.29;52.63
11499;BME280;5806;48.748;9.278;2023-06-26T10:48:16;101062.13;;;23.28;51.00
11499;BME280;5806;48.748;9.278;2023-06-26T10:50:46;101057.31;;;23.20;49.84
11499;BME280;5806;48.748;9.278;2023-06-26T10:55:55;101064.61;;;23.29;51.23
11499;BME280;5806;48.748;9.278;2023-06-26T11:01:22;101058.06;;;23.65;50.80
11499;BME280;5806;48.748;9.278;2023-06-26T11:04:04;101053.98;;;23.82;49.89
11499;BME280;5806;48.748;9.278;2023-06-26T11:06:33;101063.09;;;23.85;49.49
11499;BME280;5806;48.748;9.278;2023-06-26T11:11:54;101052.09;;;23.69;48.97
11499;BME280;5806;48.748;9.278;2023-06-26T11:14:26;101040.57;;;23.81;47.36
11499;BME280;5806;48.748;9.278;2023-06-26T11:16:56;101046.49;;;23.99;45.11
11499;BME280;5806;48.748;9.278;2023-06-26T11:19:26;101048.58;;;24.05;45.23
11499;BME280;5806;48.748;9.278;2023-06-26T11:21:59;101054.84;;;24.10;46.25
11499;BME280;5806;48.748;9.278;2023-06-26T11:24:28;101049.75;;;24.40;44.35
11499;BME280;5806;48.748;9.278;2023-06-26T11:27:02;101056.88;;;24.27;44.01
11499;BME280;5806;48.748;9.278;2023-06-26T11:29:30;101055.36;;;24.21;44.41
11499;BME280;5806;48.748;9.278;2023-06-26T11:32:02;101052.16;;;24.25;43.51
11499;BME280;5806;48.748;9.278;2023-06-26T11:34:31;101070.22;;;24.30;42.67
11499;BME280;5806;48.748;9.278;2023-06-26T11:36:59;101069.61;;;24.22;42.10
11499;BME280;5806;48.748;9.278;2023-06-26T11:39:27;101067.78;;;24.17;42.83
11499;BME280;5806;48.748;9.278;2023-06-26T11:41:55;101070.29;;;24.08;42.15
11499;BME280;5806;48.748;9.278;2023-06-26T11:44:23;101078.77;;;23.64;43.73
11499;BME280;5806;48.748;9.278;2023-06-26T11:46:53;101074.11;;;23.39;44.28
11499;BME280;5806;48.748;9.278;2023-06-26T11:49:22;101079.36;;;23.63;44.31
11499;BME280;5806;48.748;9.278;2023-06-26T11:51:52;101076.59;;;23.72;43.64
11499;BME280;5806;48.748;9.278;2023-06-26T11:54:26;101076.29;;;23.62;45.11
11499;BME280;5806;48.748;9.278;2023-06-26T11:56:55;101074.80;;;23.45;45.43
11499;BME280;5806;48.748;9.278;2023-06-26T11:59:24;101079.64;;;23.20;45.82
11499;BME280;5806;48.748;9.278;2023-06-26T12:01:51;101089.55;;;23.12;46.75
11499;BME280;5806;48.748;9.278;2023-06-26T12:04:19;101076.76;;;23.44;44.74
11499;BME280;5806;48.748;9.278;2023-06-26T12:06:49;101077.58;;;23.87;42.75
11499;BME280;5806;48.748;9.278;2023-06-26T12:09:19;101084.45;;;23.92;42.55
11499;BME280;5806;48.748;9.278;2023-06-26T12:11:48;101084.05;;;23.96;43.69
11499;BME280;5806;48.748;9.278;2023-06-26T12:14:17;101088.23;;;24.15;43.20
11499;BME280;5806;48.748;9.278;2023-06-26T12:16:47;101081.68;;;24.20;44.02
11499;BME280;5806;48.748;9.278;2023-06-26T12:19:14;101089.19;;;24.30;44.42
11499;BME280;5806;48.748;9.278;2023-06-26T12:21:44;101086.59;;;24.14;43.95
11499;BME280;5806;48.748;9.278;2023-06-26T12:24:17;101081.63;;;24.03;42.23
11499;BME280;5806;48.748;9.278;2023-06-26T12:26:45;101079.70;;;24.01;43.25
11499;BME280;5806;48.748;9.278;2023-06-26T12:29:16;101076.58;;;23.94;43.47
11499;BME280;5806;48.748;9.278;2023-06-26T12:31:52;101087.45;;;24.04;43.82
11499;BME280;5806;48.748;9.278;2023-06-26T12:34:26;101084.66;;;24.04;44.50
11499;BME280;5806;48.748;9.278;2023-06-26T12:36:50;101088.23;;;23.85;45.14
11499;BME280;5806;48.748;9.278;2023-06-26T12:39:20;101084.51;;;23.78;44.86
11499;BME280;5806;48.748;9.278;2023-06-26T12:41:55;101096.41;;;24.03;43.81
11499;BME280;5806;48.748;9.278;2023-06-26T12:44:28;101097.56;;;24.22;43.57
11499;BME280;5806;48.748;9.278;2023-06-26T12:47:02;101101.13;;;24.33;43.00
11499;BME280;5806;48.748;9.278;2023-06-26T12:49:34;101105.47;;;24.09;43.16
11499;BME280;5806;48.748;9.278;2023-06-26T12:52:04;101107.95;;;24.10;43.78
11499;BME280;5806;48.748;9.278;2023-06-26T12:54:34;101113.23;;;23.92;44.17
11499;BME280;5806;48.748;9.278;2023-06-26T12:57:02;101122.81;;;23.78;45.17
11499;BME280;5806;48.748;9.278;2023-06-26T12:59:31;101131.54;;;23.85;44.68
11499;BME280;5806;48.748;9.278;2023-06-26T13:01:59;101135.34;;;23.89;44.55
11499;BME280;5806;48.748;9.278;2023-06-26T13:04:27;101123.42;;;23.97;46.04
11499;BME280;5806;48.748;9.278;2023-06-26T13:06:55;101124.08;;;24.13;43.28
11499;BME280;5806;48.748;9.278;2023-06-26T13:09:23;101110.99;;;23.92;42.62
11499;BME280;5806;48.748;9.278;2023-06-26T13:11:54;101108.23;;;23.89;42.85
11499;BME280;5806;48.748;9.278;2023-06-26T13:14:22;101114.64;;;24.01;41.53
11499;BME280;5806;48.748;9.278;2023-06-26T13:16:49;101123.94;;;23.99;40.94
11499;BME280;5806;48.748;9.278;2023-06-26T13:19:17;101113.52;;;23.80;41.71
11499;BME280;5806;48.748;9.278;2023-06-26T13:21:44;101111.51;;;23.72;42.89
11499;BME280;5806;48.748;9.278;2023-06-26T13:24:12;101112.96;;;23.80;42.53